< < Back
Terminal Aerodrome Forecast


Current Version              Previous Versions:   1  2  3  4  5  6  7  8  9  

Terminal Aerodrome Forecast

378
FTUS44 KMOB 190500
TAFPNS
TAF
KPNS 190528Z 1906/2006 22006KT P6SM SCT200
     FM191800 22007KT P6SM VCTS SCT030CB SCT250
     FM200000 21005KT P6SM SCT200=

Latest METAR

959
SAUS70 KWBC 200700 RRA
MTRPNS
METAR KPNS 200653Z AUTO 33004KT 10SM CLR 21/20 A2997 RMK AO2 SLP151
T02110200


USA.gov is the U.S. government's official web portal to all federal, state and local government web resources and services.